createdAt,value
2023-03-16T00:02:19.262Z,98626.97
2023-03-16T00:05:26.051Z,98623.63
2023-03-16T00:08:27.998Z,98617.97
2023-03-16T00:11:30.158Z,98631.81
2023-03-16T00:14:35.704Z,98623.81
2023-03-16T00:17:37.774Z,98616.97
2023-03-16T00:20:39.648Z,98622.00
2023-03-16T00:23:42.657Z,98634.47
2023-03-16T00:26:45.028Z,98631.28
2023-03-16T00:29:51.474Z,98622.97
2023-03-16T00:32:54.043Z,98611.31
2023-03-16T00:36:02.429Z,98616.66
2023-03-16T00:39:08.185Z,98612.00
2023-03-16T00:42:11.145Z,98608.66
2023-03-16T00:45:12.869Z,98604.50
2023-03-16T00:48:18.540Z,98617.34
2023-03-16T00:51:20.437Z,98621.66
2023-03-16T00:54:22.316Z,98615.19
2023-03-16T00:57:26.115Z,98623.00
2023-03-16T01:00:30.269Z,98617.69
2023-03-16T01:03:35.696Z,98614.34
2023-03-16T01:06:39.798Z,98609.19
2023-03-16T01:09:42.748Z,98617.16
2023-03-16T01:12:45.941Z,98611.00
2023-03-16T01:15:50.941Z,98606.34
2023-03-16T01:18:53.153Z,98603.69
2023-03-16T01:21:55.107Z,98610.69
2023-03-16T01:24:57.008Z,98611.50
2023-03-16T01:27:58.881Z,98607.03
2023-03-16T01:31:04.300Z,98608.19
2023-03-16T01:34:10.240Z,98610.84
2023-03-16T01:37:15.214Z,98608.50
2023-03-16T01:40:26.356Z,98622.81
2023-03-16T01:43:31.477Z,98624.50
2023-03-16T01:46:33.827Z,98623.66
2023-03-16T01:49:38.713Z,98622.00
2023-03-16T01:52:40.767Z,98626.47
2023-03-16T01:55:43.114Z,98642.31
2023-03-16T01:58:46.998Z,98636.13
2023-03-16T02:01:51.908Z,98634.47
2023-03-16T02:05:07.244Z,98640.63
2023-03-16T02:08:12.636Z,98641.63
2023-03-16T02:11:20.509Z,98655.78
2023-03-16T02:14:30.810Z,98658.44
2023-03-16T02:17:35.570Z,98672.44
2023-03-16T02:20:48.878Z,98660.78
2023-03-16T02:23:54.097Z,98657.28
2023-03-16T02:27:04.075Z,98639.78
2023-03-16T02:30:15.567Z,98643.63
2023-03-16T02:33:32.459Z,98636.63
2023-03-16T02:36:36.561Z,98640.28
2023-03-16T02:39:38.457Z,98634.13
2023-03-16T02:42:43.341Z,98637.78
2023-03-16T02:45:48.626Z,98642.13
2023-03-16T02:48:53.648Z,98637.78
2023-03-16T02:51:57.614Z,98638.78
2023-03-16T02:54:59.646Z,98633.59
2023-03-16T02:58:01.857Z,98637.09
2023-03-16T03:01:04.030Z,98627.13
2023-03-16T03:04:08.790Z,98631.94
2023-03-16T03:07:10.783Z,98626.59
2023-03-16T03:10:29.587Z,98623.94
2023-03-16T03:13:32.827Z,98622.28
2023-03-16T03:16:35.123Z,98618.63
2023-03-16T03:19:37.088Z,98621.13
2023-03-16T03:22:39.293Z,98626.28
2023-03-16T03:25:41.227Z,98615.63
2023-03-16T03:28:44.737Z,98620.28
2023-03-16T03:31:48.304Z,98614.28
2023-03-16T03:34:50.237Z,98616.28
2023-03-16T03:37:52.228Z,98616.44
2023-03-16T03:40:59.620Z,98611.09
2023-03-16T03:44:05.441Z,98621.59
2023-03-16T03:47:09.556Z,98622.44
2023-03-16T03:50:13.954Z,98618.09
2023-03-16T03:53:42.507Z,98626.94
2023-03-16T03:57:06.050Z,98624.09
2023-03-16T04:00:11.864Z,98625.78
2023-03-16T04:03:20.502Z,98632.78
2023-03-16T04:06:22.684Z,98627.59
2023-03-16T04:09:24.722Z,98628.44
2023-03-16T04:12:26.721Z,98625.78
2023-03-16T04:15:30.489Z,98617.78
2023-03-16T04:18:46.415Z,98618.25
2023-03-16T04:21:49.182Z,98623.75
2023-03-16T04:24:53.480Z,98620.41
2023-03-16T04:27:59.619Z,98620.41
2023-03-16T04:31:10.775Z,98606.09
2023-03-16T04:34:17.089Z,98617.59
2023-03-16T04:37:21.468Z,98608.59
2023-03-16T04:40:23.729Z,98607.44
2023-03-16T04:43:34.602Z,98605.31
2023-03-16T04:46:46.809Z,98601.47
2023-03-16T04:49:48.976Z,98597.66
2023-03-16T04:52:51.715Z,98591.00
2023-03-16T04:55:54.255Z,98586.19
2023-03-16T04:58:58.726Z,98593.69
2023-03-16T05:02:04.491Z,98592.38
2023-03-16T05:05:07.777Z,98583.22
2023-03-16T05:08:12.275Z,98583.72
2023-03-16T05:11:18.454Z,98586.06
2023-03-16T05:14:31.152Z,98589.41
2023-03-16T05:17:48.490Z,98588.25
2023-03-16T05:20:53.569Z,98581.91
2023-03-16T05:23:56.513Z,98586.09
2023-03-16T05:26:58.494Z,98589.59
2023-03-16T05:30:01.370Z,98591.41
2023-03-16T05:33:05.610Z,98586.09
2023-03-16T05:36:08.485Z,98588.59
2023-03-16T05:39:13.438Z,98589.75
2023-03-16T05:42:24.201Z,98592.94
2023-03-16T05:45:32.378Z,98591.78
2023-03-16T05:48:46.243Z,98587.94
2023-03-16T05:51:50.801Z,98594.09
2023-03-16T05:54:52.803Z,98595.44
2023-03-16T05:57:54.962Z,98589.78
2023-03-16T06:01:01.196Z,98585.78
2023-03-16T06:04:06.638Z,98586.78
2023-03-16T06:07:12.368Z,98586.13
2023-03-16T06:10:15.229Z,98588.28
2023-03-16T06:13:17.445Z,98596.63
2023-03-16T06:16:19.690Z,98587.47
2023-03-16T06:19:24.434Z,98581.44
2023-03-16T06:22:31.882Z,98590.44
2023-03-16T06:25:34.703Z,98588.44
2023-03-16T06:28:41.700Z,98598.28
2023-03-16T06:31:43.761Z,98603.28
2023-03-16T06:34:46.461Z,98606.78
2023-03-16T06:37:50.331Z,98612.63
2023-03-16T06:41:15.314Z,98606.63
2023-03-16T06:44:19.497Z,98616.13
2023-03-16T06:47:41.587Z,98605.44
2023-03-16T06:50:46.901Z,98600.63
2023-03-16T06:53:53.638Z,98603.09
2023-03-16T06:56:56.216Z,98606.63
2023-03-16T06:59:58.272Z,98597.25
2023-03-16T07:03:02.131Z,98600.94
2023-03-16T07:06:06.168Z,98604.44
2023-03-16T07:09:08.011Z,98606.09
2023-03-16T07:12:10.763Z,98606.94
2023-03-16T07:15:15.215Z,98604.09
2023-03-16T07:18:17.102Z,98608.44
2023-03-16T07:21:19.604Z,98615.44
2023-03-16T07:24:24.976Z,98613.59
2023-03-16T07:27:28.912Z,98614.44
2023-03-16T07:30:33.619Z,98615.09
2023-03-16T07:33:36.848Z,98610.25
2023-03-16T07:36:41.189Z,98610.06
2023-03-16T07:39:43.783Z,98603.22
2023-03-16T07:42:58.472Z,98602.72
2023-03-16T07:46:03.044Z,98598.38
2023-03-16T07:49:04.962Z,98589.38
2023-03-16T07:52:10.835Z,98589.19
2023-03-16T07:55:15.279Z,98588.16
2023-03-16T07:58:18.590Z,98588.31
2023-03-16T08:01:22.721Z,98589.94
2023-03-16T08:04:25.207Z,98584.56
2023-03-16T08:07:28.134Z,98582.84
2023-03-16T08:10:42.764Z,98576.16
2023-03-16T08:13:58.475Z,98592.31
2023-03-16T08:17:09.935Z,98585.63
2023-03-16T08:20:14.957Z,98587.94
2023-03-16T08:23:21.044Z,98586.41
2023-03-16T08:26:23.743Z,98579.22
2023-03-16T08:29:30.509Z,98581.91
2023-03-16T08:32:40.157Z,98579.03
2023-03-16T08:35:44.932Z,98582.56
2023-03-16T08:39:04.082Z,98583.72
2023-03-16T08:42:11.783Z,98583.91
2023-03-16T08:45:20.069Z,98593.78
2023-03-16T08:48:25.809Z,98589.25
2023-03-16T08:51:29.581Z,98594.44
2023-03-16T08:54:32.741Z,98592.75
2023-03-16T08:57:35.013Z,98595.25
2023-03-16T09:00:37.569Z,98595.09
2023-03-16T09:03:45.888Z,98595.75
2023-03-16T09:07:05.948Z,98603.41
2023-03-16T09:10:15.374Z,98592.38
2023-03-16T09:13:17.304Z,98598.66
2023-03-16T09:16:20.190Z,98599.97
2023-03-16T09:19:23.010Z,98607.66
2023-03-16T09:22:25.274Z,98612.66
2023-03-16T09:25:27.556Z,98610.94
2023-03-16T09:28:33.162Z,98608.91
2023-03-16T09:31:36.345Z,98619.91
2023-03-16T09:34:41.104Z,98616.69
2023-03-16T09:37:45.450Z,98620.19
2023-03-16T09:41:03.107Z,98618.19
2023-03-16T09:44:17.095Z,98626.03
2023-03-16T09:47:25.788Z,98614.31
2023-03-16T09:50:47.612Z,98613.13
2023-03-16T09:53:57.437Z,98616.47
2023-03-16T09:57:01.579Z,98612.41
2023-03-16T10:00:16.526Z,98614.56
2023-03-16T10:03:30.378Z,98616.03
2023-03-16T10:06:33.212Z,98626.94
2023-03-16T10:09:47.950Z,98631.25
2023-03-16T10:12:54.006Z,98635.13
2023-03-16T10:15:59.981Z,98639.47
2023-03-16T10:19:20.650Z,98642.16
2023-03-16T10:22:29.830Z,98644.16
2023-03-16T10:26:14.321Z,98640.47
2023-03-16T10:29:16.786Z,98638.63
2023-03-16T10:32:28.221Z,98642.81
2023-03-16T10:35:39.081Z,98633.59
2023-03-16T10:38:50.841Z,98637.75
2023-03-16T10:41:59.287Z,98633.88
2023-03-16T10:45:03.746Z,98637.38
2023-03-16T10:48:28.468Z,98638.69
2023-03-16T10:51:39.089Z,98628.81
2023-03-16T10:54:41.346Z,98624.13
2023-03-16T10:57:56.644Z,98645.34
2023-03-16T11:00:58.531Z,98639.06
2023-03-16T11:04:01.854Z,98644.22
2023-03-16T11:07:03.796Z,98645.06
2023-03-16T11:10:36.108Z,98640.53
2023-03-16T11:13:47.752Z,98648.38
2023-03-16T11:16:55.003Z,98636.66
2023-03-16T11:20:14.744Z,98637.69
2023-03-16T11:23:21.269Z,98638.22
2023-03-16T11:26:45.530Z,98640.06
2023-03-16T11:29:59.587Z,98643.41
2023-03-16T11:33:01.985Z,98638.03
2023-03-16T11:36:28.102Z,98635.38
2023-03-16T11:40:01.515Z,98640.72
2023-03-16T11:43:29.742Z,98642.75
2023-03-16T11:46:54.390Z,98635.19
2023-03-16T11:50:11.462Z,98637.31
2023-03-16T11:53:31.393Z,98646.28
2023-03-16T11:56:38.888Z,98639.94
2023-03-16T12:00:07.223Z,98642.25
2023-03-16T12:03:46.717Z,98642.53
2023-03-16T12:07:20.496Z,98640.34
2023-03-16T12:10:54.263Z,98643.28
2023-03-16T12:14:11.476Z,98642.81
2023-03-16T12:17:23.310Z,98643.56
2023-03-16T12:20:47.667Z,98642.00
2023-03-16T12:24:02.982Z,98652.16
2023-03-16T12:27:06.889Z,98644.59
2023-03-16T12:30:48.053Z,98636.38
2023-03-16T12:34:14.803Z,98647.47
2023-03-16T12:37:25.182Z,98646.81
2023-03-16T12:40:56.912Z,98644.78
2023-03-16T12:44:10.062Z,98644.59
2023-03-16T12:47:39.934Z,98649.13
2023-03-16T12:50:58.638Z,98642.09
2023-03-16T12:54:02.142Z,98639.41
2023-03-16T12:57:09.006Z,98635.09
2023-03-16T13:00:14.422Z,98634.44
2023-03-16T13:03:21.486Z,98630.28
2023-03-16T13:06:24.963Z,98636.75
2023-03-16T13:09:32.092Z,98639.59
2023-03-16T13:12:38.912Z,98634.97
2023-03-16T13:15:41.807Z,98641.53
2023-03-16T13:18:45.345Z,98645.56
2023-03-16T13:21:47.684Z,98639.56
2023-03-16T13:25:12.457Z,98630.22
2023-03-16T13:28:19.039Z,98624.22
2023-03-16T13:31:27.700Z,98618.59
2023-03-16T13:34:48.781Z,98622.28
2023-03-16T13:37:51.051Z,98628.88
2023-03-16T13:40:56.825Z,98635.72
2023-03-16T13:43:58.737Z,98638.09
2023-03-16T13:47:05.755Z,98642.63
2023-03-16T13:50:14.851Z,98639.41
2023-03-16T13:53:22.897Z,98654.09
2023-03-16T13:56:31.696Z,98658.97
2023-03-16T13:59:33.950Z,98654.16
2023-03-16T14:02:43.704Z,98652.03
2023-03-16T14:05:46.138Z,98663.91
2023-03-16T14:08:50.897Z,98660.41
2023-03-16T14:11:53.301Z,98655.22
2023-03-16T14:14:56.490Z,98647.84
2023-03-16T14:18:23.287Z,98657.72
2023-03-16T14:21:30.607Z,98655.59
2023-03-16T14:24:38.382Z,98660.94
2023-03-16T14:27:40.637Z,98666.66
2023-03-16T14:30:53.977Z,98669.97
2023-03-16T14:34:01.480Z,98679.53
2023-03-16T14:37:06.410Z,98677.22
2023-03-16T14:40:23.020Z,98677.41
2023-03-16T14:43:40.115Z,98673.41
2023-03-16T14:46:42.582Z,98682.81
2023-03-16T14:49:44.519Z,98681.47
2023-03-16T14:52:47.453Z,98687.19
2023-03-16T14:55:49.703Z,98703.06
2023-03-16T14:58:54.111Z,98704.25
2023-03-16T15:01:56.157Z,98718.44
2023-03-16T15:05:00.192Z,98720.63
2023-03-16T15:08:03.924Z,98724.16
2023-03-16T15:11:08.231Z,98731.34
2023-03-16T15:14:37.470Z,98730.69
2023-03-16T15:17:39.296Z,98741.38
2023-03-16T15:20:44.008Z,98742.38
2023-03-16T15:23:48.897Z,98745.06
2023-03-16T15:26:53.445Z,98753.25
2023-03-16T15:29:56.737Z,98753.59
2023-03-16T15:32:58.691Z,98754.78
2023-03-16T15:36:03.451Z,98753.28
2023-03-16T15:39:08.617Z,98762.31
2023-03-16T15:42:18.595Z,98765.16
2023-03-16T15:45:22.677Z,98779.72
2023-03-16T15:48:25.488Z,98778.03
2023-03-16T15:51:33.616Z,98786.41
2023-03-16T15:54:36.774Z,98789.25
2023-03-16T15:57:41.296Z,98792.25
2023-03-16T16:00:45.674Z,98786.25
2023-03-16T16:03:48.354Z,98781.41
2023-03-16T16:06:54.502Z,98795.78
2023-03-16T16:09:56.462Z,98802.31
2023-03-16T16:13:00.143Z,98807.66
2023-03-16T16:16:02.019Z,98817.69
2023-03-16T16:19:03.907Z,98820.53
2023-03-16T16:22:06.820Z,98822.19
2023-03-16T16:25:12.275Z,98819.19
2023-03-16T16:28:18.831Z,98814.69
2023-03-16T16:31:23.607Z,98818.53
2023-03-16T16:34:28.696Z,98818.69
2023-03-16T16:37:32.672Z,98819.69
2023-03-16T16:40:43.413Z,98819.69
2023-03-16T16:43:47.876Z,98826.06
2023-03-16T16:46:50.927Z,98814.88
2023-03-16T16:49:52.841Z,98824.06
2023-03-16T16:52:55.421Z,98828.72
2023-03-16T16:55:59.982Z,98830.56
2023-03-16T16:59:11.735Z,98835.25
2023-03-16T17:02:33.186Z,98836.91
2023-03-16T17:05:35.010Z,98837.09
2023-03-16T17:08:36.922Z,98839.09
2023-03-16T17:11:38.766Z,98840.25
2023-03-16T17:14:41.469Z,98839.41
2023-03-16T17:17:43.959Z,98848.44
2023-03-16T17:20:49.618Z,98841.59
2023-03-16T17:23:52.999Z,98836.41
2023-03-16T17:27:00.829Z,98826.56
2023-03-16T17:30:02.930Z,98831.41
2023-03-16T17:33:13.355Z,98826.41
2023-03-16T17:36:17.744Z,98823.06
2023-03-16T17:39:31.512Z,98830.91
2023-03-16T17:42:33.507Z,98821.56
2023-03-16T17:45:35.519Z,98823.38
2023-03-16T17:48:37.508Z,98826.56
2023-03-16T17:51:42.263Z,98824.72
2023-03-16T17:54:54.344Z,98825.56
2023-03-16T17:57:56.242Z,98828.56
2023-03-16T18:01:01.587Z,98826.06
2023-03-16T18:04:04.762Z,98826.91
2023-03-16T18:07:14.255Z,98829.41
2023-03-16T18:10:18.642Z,98830.41
2023-03-16T18:13:36.168Z,98818.53
2023-03-16T18:16:39.525Z,98819.72
2023-03-16T18:19:42.403Z,98819.72
2023-03-16T18:22:44.290Z,98825.06
2023-03-16T18:25:46.889Z,98824.50
2023-03-16T18:28:53.497Z,98830.03
2023-03-16T18:31:56.987Z,98839.03
2023-03-16T18:34:58.911Z,98840.03
2023-03-16T18:38:01.160Z,98841.88
2023-03-16T18:41:16.758Z,98859.72
2023-03-16T18:44:21.593Z,98866.56
2023-03-16T18:47:26.925Z,98868.38
2023-03-16T18:50:30.322Z,98865.22
2023-03-16T18:53:32.745Z,98868.88
2023-03-16T18:56:34.800Z,98860.03
2023-03-16T18:59:36.701Z,98863.53
2023-03-16T19:02:39.803Z,98868.03
2023-03-16T19:05:42.162Z,98867.38
2023-03-16T19:08:44.403Z,98858.84
2023-03-16T19:11:47.043Z,98875.03
2023-03-16T19:14:48.979Z,98870.69
2023-03-16T19:17:53.769Z,98883.03
2023-03-16T19:20:56.827Z,98871.53
2023-03-16T19:24:03.033Z,98877.69
2023-03-16T19:27:16.634Z,98880.03
2023-03-16T19:30:26.067Z,98878.34
2023-03-16T19:33:29.190Z,98875.84
2023-03-16T19:36:33.557Z,98882.19
2023-03-16T19:39:37.762Z,98885.34
2023-03-16T19:42:42.309Z,98882.66
2023-03-16T19:45:45.772Z,98883.66
2023-03-16T19:48:47.777Z,98890.00
2023-03-16T19:51:52.194Z,98890.00
2023-03-16T19:58:59.987Z,98898.31
2023-03-16T20:02:10.602Z,98910.00
2023-03-16T20:05:22.063Z,98908.81
2023-03-16T20:08:29.195Z,98908.97
2023-03-16T20:11:32.506Z,98903.94
2023-03-16T20:14:34.474Z,98899.78
2023-03-16T20:17:36.586Z,98893.59
2023-03-16T20:20:38.427Z,98906.09
2023-03-16T20:23:40.270Z,98904.75
2023-03-16T20:26:43.299Z,98897.75
2023-03-16T20:29:46.975Z,98894.25
2023-03-16T20:32:49.177Z,98893.41
2023-03-16T20:35:53.560Z,98895.41
2023-03-16T20:38:55.505Z,98910.72
2023-03-16T20:41:57.464Z,98909.22
2023-03-16T20:44:59.559Z,98901.88
2023-03-16T20:48:01.898Z,98907.22
2023-03-16T20:51:03.941Z,98900.22
2023-03-16T20:54:05.876Z,98905.53
2023-03-16T20:57:15.801Z,98900.38
2023-03-16T21:00:31.440Z,98909.53
2023-03-16T21:03:33.780Z,98903.50
2023-03-16T21:06:35.685Z,98916.84
2023-03-16T21:09:37.572Z,98916.00
2023-03-16T21:12:45.075Z,98915.19
2023-03-16T21:15:50.112Z,98912.50
2023-03-16T21:18:52.186Z,98910.16
2023-03-16T21:21:54.017Z,98905.81
2023-03-16T21:24:56.288Z,98906.97
2023-03-16T21:28:02.341Z,98909.78
2023-03-16T21:31:05.721Z,98917.13
2023-03-16T21:34:26.046Z,98912.63
2023-03-16T21:37:28.237Z,98910.13
2023-03-16T21:40:30.349Z,98916.28
2023-03-16T21:43:32.553Z,98905.63
2023-03-16T21:46:34.497Z,98912.78
2023-03-16T21:49:36.645Z,98916.13
2023-03-16T21:52:41.830Z,98913.63
2023-03-16T21:55:43.720Z,98927.94
2023-03-16T21:58:47.394Z,98927.09
2023-03-16T22:02:01.157Z,98937.94
2023-03-16T22:05:23.782Z,98930.94
2023-03-16T22:08:31.350Z,98938.09
2023-03-16T22:11:33.206Z,98939.09
2023-03-16T22:14:35.162Z,98934.75
2023-03-16T22:17:37.351Z,98928.88
2023-03-16T22:20:39.267Z,98932.03
2023-03-16T22:23:41.394Z,98928.69
2023-03-16T22:26:43.323Z,98927.47
2023-03-16T22:29:45.364Z,98934.94
2023-03-16T22:32:53.303Z,98927.63
2023-03-16T22:36:16.678Z,98925.28
2023-03-16T22:39:18.777Z,98909.75
2023-03-16T22:42:35.860Z,98908.91
2023-03-16T22:45:38.135Z,98906.09
2023-03-16T22:48:40.004Z,98909.22
2023-03-16T22:51:42.450Z,98921.41
2023-03-16T22:54:46.238Z,98920.88
2023-03-16T22:57:51.676Z,98915.69
2023-03-16T23:00:53.725Z,98918.69
2023-03-16T23:03:55.646Z,98913.50
2023-03-16T23:06:58.047Z,98908.31
2023-03-16T23:10:00.680Z,98900.66
2023-03-16T23:13:02.740Z,98889.97
2023-03-16T23:16:05.002Z,98890.28
2023-03-16T23:19:32.925Z,98896.63
2023-03-16T23:22:34.870Z,98894.41
2023-03-16T23:25:37.051Z,98906.91
2023-03-16T23:28:39.579Z,98896.09
2023-03-16T23:31:41.747Z,98890.38
2023-03-16T23:34:43.995Z,98888.72
2023-03-16T23:37:46.960Z,98894.34
2023-03-16T23:40:49.485Z,98885.69
2023-03-16T23:43:53.095Z,98896.34
2023-03-16T23:46:55.018Z,98898.00
2023-03-16T23:49:56.834Z,98900.13
2023-03-16T23:52:58.975Z,98907.97
2023-03-16T23:56:01.049Z,98904.31
2023-03-16T23:59:02.890Z,98912.00
